El-djazair II — 7TBR — position and weather

sailwx.info

Track history (hours):
 
Tides and Currents Weather Stations Pressure Air Temp Water Temp Dewpoint Dewpoint Depression Visibility Wind Speed Wind Dir Waves Ship Positions

El-djazair II

Last reported at 2017-Aug-19 16:11 UTC. Time now 2017-Aug-19 16:43 UTC.
Position N 43°18' E 005°22'.

Length 146 m; draft 6.3 m.

Type: Passenger vessel. MMSI: 605026190.

Date/timePositionNaut miles runAvg speedWind from/ knotsBaromVisibWave heightAir tempDewpointWater temp
2017-Aug-19 16:11N 43°18' E 005°22'0 0.0
2017-Aug-19 15:59N 43°18' E 005°22'0 0.0
2017-Aug-19 15:26N 43°18' E 005°22'0 0.0
2017-Aug-19 13:59N 43°18' E 005°22'1 1.4
2017-Aug-19 13:30N 43°18' E 005°21'612.9
2017-Aug-19 13:00N 43°14' E 005°14'1122.0
2017-Aug-19 12:31N 43°08' E 005°02'1121.9
2017-Aug-19 12:00N 43°01' E 004°49'1122.1
2017-Aug-19 11:30N 42°55' E 004°37'1122.2
2017-Aug-19 11:01N 42°49' E 004°24'1122.2
2017-Aug-19 10:31N 42°43' E 004°12'9520.9
2017-Aug-19 05:58N 41°32' E 002°45'1122.9
2017-Aug-19 05:30N 41°26' E 002°34'2322.0
2017-Aug-19 04:27N 41°09' E 002°13'1022.6
2017-Aug-19 04:00N 41°00' E 002°08'1122.5
2017-Aug-19 03:30N 40°50' E 002°01'1122.4
2017-Aug-19 03:00N 40°39' E 001°57'1122.4
2017-Aug-19 02:30N 40°29' E 001°51'1122.3
2017-Aug-19 02:00N 40°19' E 001°46'1122.5
2017-Aug-19 01:30N 40°08' E 001°40'1122.8
2017-Aug-19 01:00N 39°58' E 001°34'1222.9
2017-Aug-19 00:30N 39°47' E 001°28'1122.8
2017-Aug-19 00:00N 39°37' E 001°23'1222.6
2017-Aug-18 23:29N 39°26' E 001°17'1022.2
2017-Aug-18 23:00N 39°16' E 001°12'1322.4
2017-Aug-18 22:24N 39°04' E 001°05'1123.0
2017-Aug-18 21:55N 38°53' E 000°60'1023.0
2017-Aug-18 21:30N 38°44' E 000°55'1122.9
2017-Aug-18 21:01N 38°34' E 000°50'1223.0
2017-Aug-18 20:30N 38°23' E 000°44'1123.0
2017-Aug-18 20:00N 38°13' E 000°38'1122.7
2017-Aug-18 19:30N 38°02' E 000°33'1223.0
2017-Aug-18 19:00N 37°51' E 000°27'1222.8
2017-Aug-18 18:30N 37°41' E 000°22'1122.9
2017-Aug-18 18:01N 37°30' E 000°17'1122.8
2017-Aug-18 17:31N 37°20' E 000°11'1223.0
2017-Aug-18 17:00N 37°09' E 000°06'1122.9
2017-Aug-18 16:30N 36°58' E 000°00'1222.4
2017-Aug-18 15:59N 36°48' W 000°05'1222.8
2017-Aug-18 15:29N 36°37' W 000°11'3722.8
2017-Aug-18 13:53N 36°03' W 000°28'923.5
2017-Aug-18 13:30N 35°55' W 000°32'1222.0
2017-Aug-18 12:57N 35°44' W 000°37'68 2.2
2017-Aug-17 06:06N 36°36' E 000°16'622.5
2017-Aug-17 05:50N 36°42' E 000°17'822.4
2017-Aug-17 05:30N 36°50' E 000°19'2022.5
2017-Aug-17 04:37N 37°09' E 000°27'323.1
2017-Aug-17 04:30N 37°11' E 000°28'1423.1
2017-Aug-17 03:54N 37°25' E 000°32'3422.8
2017-Aug-17 02:24N 37°58' E 000°42'1922.5
2017-Aug-17 01:35N 38°16' E 000°48'322.5
2017-Aug-17 01:25N 38°19' E 000°49'922.5
2017-Aug-17 01:00N 38°28' E 000°52'1122.7
2017-Aug-17 00:30N 38°39' E 000°56'1122.8
2017-Aug-17 00:00N 38°50' E 000°59'1122.6
2017-Aug-16 23:30N 39°01' E 001°03'1222.8
2017-Aug-16 22:59N 39°12' E 001°09'1123.0
2017-Aug-16 22:30N 39°23' E 001°15'1222.9
2017-Aug-16 21:57N 39°34' E 001°20'1022.6
2017-Aug-16 21:30N 39°44' E 001°25'1122.5
2017-Aug-16 21:00N 39°54' E 001°30'1122.6
2017-Aug-16 20:30N 40°05' E 001°35'1123.0
2017-Aug-16 20:00N 40°15' E 001°41'1223.0
2017-Aug-16 19:30N 40°26' E 001°46'1223.3
2017-Aug-16 19:00N 40°37' E 001°52'1223.2
2017-Aug-16 18:31N 40°48' E 001°58'1223.2
2017-Aug-16 18:00N 40°59' E 002°03'1123.0
2017-Aug-16 17:31N 41°09' E 002°08'1121.3
2017-Aug-16 17:00N 41°19' E 002°13'4 6.2
2017-Aug-16 16:26N 41°22' E 002°11'0 0.0
2017-Aug-16 15:44N 41°22' E 002°11'0 0.0
2017-Aug-16 11:41N 41°22' E 002°11'0 0.0
2017-Aug-16 11:29N 41°22' E 002°11'0 0.0
2017-Aug-16 10:53N 41°22' E 002°11'0 0.0
2017-Aug-16 10:11N 41°22' E 002°11'0 0.0
2017-Aug-16 09:47N 41°22' E 002°11'0 0.0
2017-Aug-16 08:47N 41°22' E 002°11'0 0.0
2017-Aug-16 08:23N 41°22' E 002°11'0 0.2
2017-Aug-16 08:00N 41°22' E 002°11'3 6.1
2017-Aug-16 07:30N 41°20' E 002°14'1020.6
2017-Aug-16 07:00N 41°11' E 002°09'1121.4
2017-Aug-16 06:30N 41°01' E 002°04'1121.2
2017-Aug-16 06:00N 40°51' E 001°59'1121.3
2017-Aug-16 05:30N 40°41' E 001°53'1121.5
2017-Aug-16 05:00N 40°31' E 001°49'1121.4
2017-Aug-16 04:30N 40°21' E 001°44'1121.3
2017-Aug-16 04:00N 40°11' E 001°38'1020.6
2017-Aug-16 03:30N 40°01' E 001°34'1121.0
2017-Aug-16 02:59N 39°51' E 001°29'2820.9
2017-Aug-16 01:39N 39°25' E 001°15'420.9
2017-Aug-16 01:27N 39°21' E 001°13'1220.8
2017-Aug-16 00:54N 39°10' E 001°08'2421.8
2017-Aug-15 23:48N 38°47' E 000°59'822.9
2017-Aug-15 23:26N 38°39' E 000°56'6622.5
2017-Aug-15 20:30N 37°36' E 000°35'1122.6
2017-Aug-15 20:01N 37°25' E 000°32'1121.8
2017-Aug-15 19:31N 37°14' E 000°28'1121.8
2017-Aug-15 19:01N 37°04' E 000°25'1122.1
2017-Aug-15 18:31N 36°53' E 000°22'1122.8
2017-Aug-15 18:01N 36°42' E 000°18'1122.9
2017-Aug-15 17:31N 36°31' E 000°15'2222.5
2017-Aug-15 16:32N 36°10' E 000°07'120.9
2017-Aug-15 16:30N 36°09' E 000°07'7 0.2
2017-Aug-14 06:17N 36°15' E 000°11'1621.6
2017-Aug-14 05:33N 36°29' E 000°19'221.4
2017-Aug-14 05:28N 36°31' E 000°21'1021.2
2017-Aug-14 05:00N 36°40' E 000°26'1221.0
2017-Aug-14 04:26N 36°51' E 000°32'921.1
2017-Aug-14 04:00N 36°59' E 000°37'1121.3
2017-Aug-14 03:30N 37°09' E 000°42'1020.9
2017-Aug-14 03:00N 37°18' E 000°48'1120.9
2017-Aug-14 02:30N 37°28' E 000°53'1021.3
2017-Aug-14 02:00N 37°37' E 000°59'1321.1
2017-Aug-14 01:24N 37°49' E 001°05'717.8
2017-Aug-14 00:59N 37°55' E 001°01'71 3.7
2017-Aug-13 05:39N 38°15' W 000°26'520.2
2017-Aug-13 05:23N 38°11' W 000°21'1119.2
2017-Aug-13 04:49N 38°02' W 000°13'3519.1
2017-Aug-13 03:00N 37°36' E 000°16'1020.4
2017-Aug-13 02:30N 37°28' E 000°24'1219.4
2017-Aug-13 01:53N 37°18' E 000°17'720.1
2017-Aug-13 01:30N 37°11' E 000°11'1220.0
2017-Aug-13 00:54N 37°01' E 000°03'820.0
2017-Aug-13 00:30N 36°55' W 000°02'41 2.4
2017-Aug-12 07:04N 37°33' W 000°21'221.8
2017-Aug-12 06:58N 37°35' W 000°21'148 3.3
2017-Aug-10 10:30N 38°31' E 002°33'714.1
2017-Aug-10 10:01N 38°38' E 002°30'612.1
2017-Aug-10 09:30N 38°44' E 002°28'713.4
2017-Aug-10 09:00N 38°51' E 002°26'713.4
2017-Aug-10 08:29N 38°57' E 002°24'613.3
2017-Aug-10 08:00N 39°03' E 002°22'713.2
2017-Aug-10 07:30N 39°10' E 002°19'713.3
2017-Aug-10 07:00N 39°16' E 002°17'611.6
2017-Aug-10 06:30N 39°22' E 002°15'613.0
2017-Aug-10 06:01N 39°28' E 002°13'612.8
2017-Aug-10 05:30N 39°34' E 002°12'612.3
2017-Aug-10 05:01N 39°40' E 002°13'612.6
2017-Aug-10 04:30N 39°46' E 002°16'612.8
2017-Aug-10 04:01N 39°52' E 002°20'612.6
2017-Aug-10 03:30N 39°58' E 002°23'612.3
2017-Aug-10 03:01N 40°04' E 002°26'815.4
2017-Aug-10 02:30N 40°11' E 002°30'1121.2
2017-Aug-10 02:00N 40°21' E 002°35'1121.1
2017-Aug-10 01:30N 40°30' E 002°41'1121.3
2017-Aug-10 01:01N 40°40' E 002°46'1121.4
2017-Aug-10 00:31N 40°50' E 002°51'1121.2
2017-Aug-10 00:00N 41°00' E 002°56'12920.4
2017-Aug-09 17:42N 42°50' E 004°27'821.2
2017-Aug-09 17:19N 42°54' E 004°36'721.2
2017-Aug-09 17:00N 42°58' E 004°44'1121.0
2017-Aug-09 16:30N 43°04' E 004°55'  
Track history (hours):
 
Tides and Currents Weather Stations Pressure Air Temp Water Temp Dewpoint Dewpoint Depression Visibility Wind Speed Wind Dir Waves Ship Positions

El-djazair II

Last reported at 2017-Aug-19 16:11 UTC. Time now 2017-Aug-19 16:43 UTC.
Position N 43°18' E 005°22'.

Length 146 m; draft 6.3 m.

Type: Passenger vessel. MMSI: 605026190.

Date/timePositionNaut miles runAvg speedWind from/ knotsBaromVisibWave heightAir tempDewpointWater temp
2017-Aug-19 16:11N 43°18' E 005°22'0 0.0
2017-Aug-19 15:59N 43°18' E 005°22'0 0.0
2017-Aug-19 15:26N 43°18' E 005°22'0 0.0
2017-Aug-19 13:59N 43°18' E 005°22'1 1.4
2017-Aug-19 13:30N 43°18' E 005°21'612.9
2017-Aug-19 13:00N 43°14' E 005°14'1122.0
2017-Aug-19 12:31N 43°08' E 005°02'1121.9
2017-Aug-19 12:00N 43°01' E 004°49'1122.1
2017-Aug-19 11:30N 42°55' E 004°37'1122.2
2017-Aug-19 11:01N 42°49' E 004°24'1122.2
2017-Aug-19 10:31N 42°43' E 004°12'9520.9
2017-Aug-19 05:58N 41°32' E 002°45'1122.9
2017-Aug-19 05:30N 41°26' E 002°34'2322.0
2017-Aug-19 04:27N 41°09' E 002°13'1022.6
2017-Aug-19 04:00N 41°00' E 002°08'1122.5
2017-Aug-19 03:30N 40°50' E 002°01'1122.4
2017-Aug-19 03:00N 40°39' E 001°57'1122.4
2017-Aug-19 02:30N 40°29' E 001°51'1122.3
2017-Aug-19 02:00N 40°19' E 001°46'1122.5
2017-Aug-19 01:30N 40°08' E 001°40'1122.8
2017-Aug-19 01:00N 39°58' E 001°34'1222.9
2017-Aug-19 00:30N 39°47' E 001°28'1122.8
2017-Aug-19 00:00N 39°37' E 001°23'1222.6
2017-Aug-18 23:29N 39°26' E 001°17'1022.2
2017-Aug-18 23:00N 39°16' E 001°12'1322.4
2017-Aug-18 22:24N 39°04' E 001°05'1123.0
2017-Aug-18 21:55N 38°53' E 000°60'1023.0
2017-Aug-18 21:30N 38°44' E 000°55'1122.9
2017-Aug-18 21:01N 38°34' E 000°50'1223.0
2017-Aug-18 20:30N 38°23' E 000°44'1123.0
2017-Aug-18 20:00N 38°13' E 000°38'1122.7
2017-Aug-18 19:30N 38°02' E 000°33'1223.0
2017-Aug-18 19:00N 37°51' E 000°27'1222.8
2017-Aug-18 18:30N 37°41' E 000°22'1122.9
2017-Aug-18 18:01N 37°30' E 000°17'1122.8
2017-Aug-18 17:31N 37°20' E 000°11'1223.0
2017-Aug-18 17:00N 37°09' E 000°06'1122.9
2017-Aug-18 16:30N 36°58' E 000°00'1222.4
2017-Aug-18 15:59N 36°48' W 000°05'1222.8
2017-Aug-18 15:29N 36°37' W 000°11'3722.8
2017-Aug-18 13:53N 36°03' W 000°28'923.5
2017-Aug-18 13:30N 35°55' W 000°32'1222.0
2017-Aug-18 12:57N 35°44' W 000°37'68 2.2
2017-Aug-17 06:06N 36°36' E 000°16'622.5
2017-Aug-17 05:50N 36°42' E 000°17'822.4
2017-Aug-17 05:30N 36°50' E 000°19'2022.5
2017-Aug-17 04:37N 37°09' E 000°27'323.1
2017-Aug-17 04:30N 37°11' E 000°28'1423.1
2017-Aug-17 03:54N 37°25' E 000°32'3422.8
2017-Aug-17 02:24N 37°58' E 000°42'1922.5
2017-Aug-17 01:35N 38°16' E 000°48'322.5
2017-Aug-17 01:25N 38°19' E 000°49'922.5
2017-Aug-17 01:00N 38°28' E 000°52'1122.7
2017-Aug-17 00:30N 38°39' E 000°56'1122.8
2017-Aug-17 00:00N 38°50' E 000°59'1122.6
2017-Aug-16 23:30N 39°01' E 001°03'1222.8
2017-Aug-16 22:59N 39°12' E 001°09'1123.0
2017-Aug-16 22:30N 39°23' E 001°15'1222.9
2017-Aug-16 21:57N 39°34' E 001°20'1022.6
2017-Aug-16 21:30N 39°44' E 001°25'1122.5
2017-Aug-16 21:00N 39°54' E 001°30'1122.6
2017-Aug-16 20:30N 40°05' E 001°35'1123.0
2017-Aug-16 20:00N 40°15' E 001°41'1223.0
2017-Aug-16 19:30N 40°26' E 001°46'1223.3
2017-Aug-16 19:00N 40°37' E 001°52'1223.2
2017-Aug-16 18:31N 40°48' E 001°58'1223.2
2017-Aug-16 18:00N 40°59' E 002°03'1123.0
2017-Aug-16 17:31N 41°09' E 002°08'1121.3
2017-Aug-16 17:00N 41°19' E 002°13'4 6.2
2017-Aug-16 16:26N 41°22' E 002°11'0 0.0
2017-Aug-16 15:44N 41°22' E 002°11'0 0.0
2017-Aug-16 11:41N 41°22' E 002°11'0 0.0
2017-Aug-16 11:29N 41°22' E 002°11'0 0.0
2017-Aug-16 10:53N 41°22' E 002°11'0 0.0
2017-Aug-16 10:11N 41°22' E 002°11'0 0.0
2017-Aug-16 09:47N 41°22' E 002°11'0 0.0
2017-Aug-16 08:47N 41°22' E 002°11'0 0.0
2017-Aug-16 08:23N 41°22' E 002°11'0 0.2
2017-Aug-16 08:00N 41°22' E 002°11'3 6.1
2017-Aug-16 07:30N 41°20' E 002°14'1020.6
2017-Aug-16 07:00N 41°11' E 002°09'1121.4
2017-Aug-16 06:30N 41°01' E 002°04'1121.2
2017-Aug-16 06:00N 40°51' E 001°59'1121.3
2017-Aug-16 05:30N 40°41' E 001°53'1121.5
2017-Aug-16 05:00N 40°31' E 001°49'1121.4
2017-Aug-16 04:30N 40°21' E 001°44'1121.3
2017-Aug-16 04:00N 40°11' E 001°38'1020.6
2017-Aug-16 03:30N 40°01' E 001°34'1121.0
2017-Aug-16 02:59N 39°51' E 001°29'2820.9
2017-Aug-16 01:39N 39°25' E 001°15'420.9
2017-Aug-16 01:27N 39°21' E 001°13'1220.8
2017-Aug-16 00:54N 39°10' E 001°08'2421.8
2017-Aug-15 23:48N 38°47' E 000°59'822.9
2017-Aug-15 23:26N 38°39' E 000°56'6622.5
2017-Aug-15 20:30N 37°36' E 000°35'1122.6
2017-Aug-15 20:01N 37°25' E 000°32'1121.8
2017-Aug-15 19:31N 37°14' E 000°28'1121.8
2017-Aug-15 19:01N 37°04' E 000°25'1122.1
2017-Aug-15 18:31N 36°53' E 000°22'1122.8
2017-Aug-15 18:01N 36°42' E 000°18'1122.9
2017-Aug-15 17:31N 36°31' E 000°15'2222.5
2017-Aug-15 16:32N 36°10' E 000°07'120.9
2017-Aug-15 16:30N 36°09' E 000°07'7 0.2
2017-Aug-14 06:17N 36°15' E 000°11'1621.6
2017-Aug-14 05:33N 36°29' E 000°19'221.4
2017-Aug-14 05:28N 36°31' E 000°21'1021.2
2017-Aug-14 05:00N 36°40' E 000°26'1221.0
2017-Aug-14 04:26N 36°51' E 000°32'921.1
2017-Aug-14 04:00N 36°59' E 000°37'1121.3
2017-Aug-14 03:30N 37°09' E 000°42'1020.9
2017-Aug-14 03:00N 37°18' E 000°48'1120.9
2017-Aug-14 02:30N 37°28' E 000°53'1021.3
2017-Aug-14 02:00N 37°37' E 000°59'1321.1
2017-Aug-14 01:24N 37°49' E 001°05'717.8
2017-Aug-14 00:59N 37°55' E 001°01'71 3.7
2017-Aug-13 05:39N 38°15' W 000°26'520.2
2017-Aug-13 05:23N 38°11' W 000°21'1119.2
2017-Aug-13 04:49N 38°02' W 000°13'3519.1
2017-Aug-13 03:00N 37°36' E 000°16'1020.4
2017-Aug-13 02:30N 37°28' E 000°24'1219.4
2017-Aug-13 01:53N 37°18' E 000°17'720.1
2017-Aug-13 01:30N 37°11' E 000°11'1220.0
2017-Aug-13 00:54N 37°01' E 000°03'820.0
2017-Aug-13 00:30N 36°55' W 000°02'41 2.4
2017-Aug-12 07:04N 37°33' W 000°21'221.8
2017-Aug-12 06:58N 37°35' W 000°21'148 3.3
2017-Aug-10 10:30N 38°31' E 002°33'714.1
2017-Aug-10 10:01N 38°38' E 002°30'612.1
2017-Aug-10 09:30N 38°44' E 002°28'713.4
2017-Aug-10 09:00N 38°51' E 002°26'713.4
2017-Aug-10 08:29N 38°57' E 002°24'613.3
2017-Aug-10 08:00N 39°03' E 002°22'713.2
2017-Aug-10 07:30N 39°10' E 002°19'713.3
2017-Aug-10 07:00N 39°16' E 002°17'611.6
2017-Aug-10 06:30N 39°22' E 002°15'613.0
2017-Aug-10 06:01N 39°28' E 002°13'612.8
2017-Aug-10 05:30N 39°34' E 002°12'612.3
2017-Aug-10 05:01N 39°40' E 002°13'612.6
2017-Aug-10 04:30N 39°46' E 002°16'612.8
2017-Aug-10 04:01N 39°52' E 002°20'612.6
2017-Aug-10 03:30N 39°58' E 002°23'612.3
2017-Aug-10 03:01N 40°04' E 002°26'815.4
2017-Aug-10 02:30N 40°11' E 002°30'1121.2
2017-Aug-10 02:00N 40°21' E 002°35'1121.1
2017-Aug-10 01:30N 40°30' E 002°41'1121.3
2017-Aug-10 01:01N 40°40' E 002°46'1121.4
2017-Aug-10 00:31N 40°50' E 002°51'1121.2
2017-Aug-10 00:00N 41°00' E 002°56'12920.4
2017-Aug-09 17:42N 42°50' E 004°27'821.2
2017-Aug-09 17:19N 42°54' E 004°36'721.2
2017-Aug-09 17:00N 42°58' E 004°44'1121.0
2017-Aug-09 16:30N 43°04' E 004°55'  

Dump ship's entire track history